createdAt,value
2019-05-06T00:00:20.613Z,64.00
2019-05-06T00:02:48.764Z,64.34
2019-05-06T00:05:16.870Z,64.44
2019-05-06T00:07:51.425Z,64.27
2019-05-06T00:10:29.023Z,64.85
2019-05-06T00:12:57.977Z,64.98
2019-05-06T00:15:26.769Z,65.17
2019-05-06T00:17:55.677Z,65.24
2019-05-06T00:20:24.535Z,64.98
2019-05-06T00:22:56.511Z,64.87
2019-05-06T00:25:47.185Z,65.15
2019-05-06T00:28:34.021Z,65.08
2019-05-06T00:31:12.739Z,65.60
2019-05-06T00:33:34.368Z,65.18
2019-05-06T00:36:04.556Z,65.76
2019-05-06T00:38:34.010Z,66.15
2019-05-06T00:41:05.563Z,66.37
2019-05-06T00:43:34.567Z,66.27
2019-05-06T00:46:04.632Z,66.05
2019-05-06T00:48:34.179Z,65.90
2019-05-06T00:51:04.567Z,65.89
2019-05-06T00:53:35.829Z,65.67
2019-05-06T00:56:04.620Z,65.55
2019-05-06T00:58:34.776Z,65.76
2019-05-06T01:01:04.635Z,65.62
2019-05-06T01:03:35.599Z,65.53
2019-05-06T01:06:08.763Z,65.91
2019-05-06T01:08:39.068Z,65.67
2019-05-06T01:11:12.008Z,65.76
2019-05-06T01:14:10.595Z,65.18
2019-05-06T01:16:39.607Z,64.90
2019-05-06T01:19:08.038Z,64.74
2019-05-06T01:21:36.225Z,64.58
2019-05-06T01:24:04.483Z,64.80
2019-05-06T01:26:33.890Z,65.16
2019-05-06T01:29:04.007Z,65.45
2019-05-06T01:31:42.278Z,65.18
2019-05-06T01:34:04.278Z,65.65
2019-05-06T01:36:34.294Z,65.57
2019-05-06T01:39:10.756Z,65.34
2019-05-06T01:42:01.578Z,65.41
2019-05-06T01:44:30.015Z,65.68
2019-05-06T01:46:58.147Z,65.69
2019-05-06T01:49:26.601Z,65.83
2019-05-06T01:51:54.995Z,65.54
2019-05-06T01:54:24.931Z,65.64
2019-05-06T01:56:53.854Z,65.70
2019-05-06T01:59:24.466Z,65.79
2019-05-06T02:01:58.142Z,65.83
2019-05-06T02:04:24.543Z,66.35
2019-05-06T02:06:54.562Z,66.04
2019-05-06T02:09:24.694Z,65.97
2019-05-06T02:11:53.798Z,66.25
2019-05-06T02:14:21.976Z,66.31
2019-05-06T02:16:50.228Z,66.00
2019-05-06T02:19:18.488Z,66.07
2019-05-06T02:22:06.306Z,66.25
2019-05-06T02:24:47.536Z,66.21
2019-05-06T02:27:15.750Z,66.55
2019-05-06T02:29:50.076Z,66.53
2019-05-06T02:32:47.263Z,66.52
2019-05-06T02:35:18.670Z,66.73
2019-05-06T02:37:46.876Z,67.01
2019-05-06T02:40:25.579Z,66.98
2019-05-06T02:42:55.035Z,66.59
2019-05-06T02:45:24.424Z,66.56
2019-05-06T02:48:08.093Z,66.33
2019-05-06T02:50:55.837Z,66.69
2019-05-06T02:53:26.110Z,66.42
2019-05-06T02:55:54.664Z,66.27
2019-05-06T02:58:23.711Z,66.38
2019-05-06T03:00:53.894Z,67.09
2019-05-06T03:03:23.363Z,66.95
2019-05-06T03:05:53.188Z,67.01
2019-05-06T03:08:23.682Z,66.90
2019-05-06T03:10:53.401Z,66.79
2019-05-06T03:13:23.799Z,66.79
2019-05-06T03:15:54.066Z,66.75
2019-05-06T03:18:23.603Z,66.53
2019-05-06T03:21:18.401Z,66.63
2019-05-06T03:23:54.218Z,67.12
2019-05-06T03:26:23.576Z,66.92
2019-05-06T03:28:53.535Z,66.82
2019-05-06T03:31:26.150Z,66.82
2019-05-06T03:34:16.195Z,66.67
2019-05-06T03:36:27.274Z,66.30
2019-05-06T03:38:54.036Z,66.54
2019-05-06T03:41:26.184Z,66.66
2019-05-06T03:43:54.303Z,66.56
2019-05-06T03:46:48.597Z,66.91
2019-05-06T03:49:16.894Z,66.53
2019-05-06T03:51:45.473Z,66.39
2019-05-06T03:54:15.012Z,66.69
2019-05-06T03:56:45.530Z,66.42
2019-05-06T03:59:16.106Z,66.39
2019-05-06T04:01:44.658Z,66.16
2019-05-06T04:04:12.853Z,66.21
2019-05-06T04:06:43.634Z,65.84
2019-05-06T04:09:13.276Z,66.08
2019-05-06T04:11:43.306Z,66.05
2019-05-06T04:14:14.018Z,65.96
2019-05-06T04:16:48.810Z,66.20
2019-05-06T04:19:33.322Z,66.02
2019-05-06T04:22:23.585Z,65.67
2019-05-06T04:25:16.884Z,65.89
2019-05-06T04:27:53.738Z,65.98
2019-05-06T04:30:24.315Z,65.65
2019-05-06T04:32:53.173Z,65.82
2019-05-06T04:35:23.048Z,65.67
2019-05-06T04:37:53.882Z,65.79
2019-05-06T04:40:23.874Z,65.42
2019-05-06T04:42:52.878Z,65.54
2019-05-06T04:45:23.684Z,65.13
2019-05-06T04:47:53.687Z,64.48
2019-05-06T04:50:24.201Z,64.10
2019-05-06T04:53:05.258Z,64.24
2019-05-06T04:55:35.657Z,64.03
2019-05-06T04:58:05.855Z,63.96
2019-05-06T05:00:36.411Z,63.63
2019-05-06T05:03:05.223Z,63.28
2019-05-06T05:05:33.698Z,62.91
2019-05-06T05:08:02.601Z,63.00
2019-05-06T05:10:38.347Z,62.06
2019-05-06T05:13:26.263Z,61.50
2019-05-06T05:16:23.374Z,60.78
2019-05-06T05:18:55.828Z,60.69
2019-05-06T05:21:24.001Z,60.38
2019-05-06T05:23:53.172Z,59.22
2019-05-06T05:26:22.754Z,59.06
2019-05-06T05:28:53.228Z,59.11
2019-05-06T05:31:23.037Z,58.24
2019-05-06T05:33:52.646Z,57.38
2019-05-06T05:36:23.056Z,58.10
2019-05-06T05:38:52.215Z,57.37
2019-05-06T05:41:20.897Z,55.87
2019-05-06T05:43:54.888Z,55.29
2019-05-06T05:46:23.757Z,54.99
2019-05-06T05:49:22.547Z,54.18
2019-05-06T05:51:52.056Z,54.57
2019-05-06T05:54:20.361Z,53.32
2019-05-06T05:56:49.165Z,53.94
2019-05-06T06:03:07.106Z,51.90
2019-05-06T06:05:35.268Z,52.19
2019-05-06T06:08:03.656Z,53.24
2019-05-06T06:10:42.573Z,52.70
2019-05-06T06:13:12.782Z,54.16
2019-05-06T06:16:03.770Z,54.52
2019-05-06T06:18:52.962Z,54.57
2019-05-06T06:21:32.388Z,52.78
2019-05-06T06:24:05.653Z,52.24
2019-05-06T06:26:33.864Z,52.27
2019-05-06T06:29:03.240Z,52.83
2019-05-06T06:31:52.280Z,52.75
2019-05-06T06:34:32.858Z,51.19
2019-05-06T06:37:19.650Z,52.60
2019-05-06T06:39:48.294Z,52.12
2019-05-06T06:42:16.563Z,50.66
2019-05-06T06:44:45.077Z,50.65
2019-05-06T06:47:13.451Z,51.51
2019-05-06T06:49:42.408Z,51.09
2019-05-06T06:52:14.211Z,50.47
2019-05-06T06:54:43.600Z,50.77
2019-05-06T06:57:21.760Z,50.30
2019-05-06T07:00:03.872Z,51.55
2019-05-06T07:02:38.069Z,52.33
2019-05-06T07:05:28.305Z,52.08
2019-05-06T07:07:54.876Z,51.81
2019-05-06T07:10:43.018Z,51.70
2019-05-06T07:13:16.310Z,51.99
2019-05-06T07:15:45.061Z,52.30
2019-05-06T07:18:13.745Z,52.14
2019-05-06T07:20:56.831Z,52.70
2019-05-06T07:23:26.034Z,53.09
2019-05-06T07:25:54.976Z,53.79
2019-05-06T07:28:23.989Z,54.71
2019-05-06T07:30:52.693Z,54.06
2019-05-06T07:33:22.930Z,53.87
2019-05-06T07:35:52.957Z,53.65
2019-05-06T07:38:23.046Z,53.81
2019-05-06T07:40:58.127Z,54.14
2019-05-06T07:43:49.203Z,54.46
2019-05-06T07:46:25.099Z,54.42
2019-05-06T07:48:53.254Z,53.88
2019-05-06T07:51:23.693Z,53.01
2019-05-06T07:53:52.461Z,52.57
2019-05-06T07:56:22.479Z,52.59
2019-05-06T07:58:53.081Z,52.41
2019-05-06T08:01:25.537Z,52.03
2019-05-06T08:03:53.299Z,51.14
2019-05-06T08:06:22.661Z,51.11
2019-05-06T08:08:53.640Z,50.85
2019-05-06T08:11:24.395Z,50.73
2019-05-06T08:13:52.854Z,50.76
2019-05-06T08:16:22.602Z,51.06
2019-05-06T08:18:52.350Z,51.01
2019-05-06T08:21:22.980Z,51.75
2019-05-06T08:23:52.488Z,52.24
2019-05-06T08:26:22.440Z,52.24
2019-05-06T08:28:52.737Z,52.74
2019-05-06T08:31:22.557Z,52.93
2019-05-06T08:33:52.461Z,52.17
2019-05-06T08:36:28.847Z,51.86
2019-05-06T08:38:58.337Z,52.14
2019-05-06T08:41:27.853Z,51.65
2019-05-06T08:43:56.404Z,50.94
2019-05-06T08:46:24.834Z,50.66
2019-05-06T08:48:53.114Z,50.47
2019-05-06T08:51:42.392Z,50.33
2019-05-06T08:54:16.424Z,50.47
2019-05-06T08:56:44.974Z,50.83
2019-05-06T08:59:14.135Z,51.19
2019-05-06T09:01:47.895Z,48.68
2019-05-06T09:04:17.045Z,46.14
2019-05-06T09:06:45.785Z,45.02
2019-05-06T09:09:14.411Z,44.52
2019-05-06T09:11:43.325Z,44.44
2019-05-06T09:14:13.668Z,45.96
2019-05-06T09:16:43.724Z,46.54
2019-05-06T09:19:12.898Z,46.68
2019-05-06T09:21:45.370Z,46.41
2019-05-06T09:24:12.764Z,46.61
2019-05-06T09:27:03.746Z,46.41
2019-05-06T09:30:04.218Z,47.61
2019-05-06T09:32:37.757Z,48.90
2019-05-06T09:35:07.051Z,50.13
2019-05-06T09:37:35.153Z,50.15
2019-05-06T09:40:04.016Z,52.76
2019-05-06T09:42:32.578Z,58.56
2019-05-06T09:45:03.180Z,62.20
2019-05-06T09:47:49.449Z,64.05
2019-05-06T09:50:34.912Z,65.42
2019-05-06T09:53:04.066Z,65.29
2019-05-06T09:55:46.766Z,64.59
2019-05-06T09:58:15.692Z,62.08
2019-05-06T10:00:47.529Z,60.72
2019-05-06T10:03:15.687Z,61.10
2019-05-06T10:05:44.143Z,58.91
2019-05-06T10:08:12.700Z,58.41
2019-05-06T10:10:53.741Z,56.39
2019-05-06T10:13:12.854Z,55.86
2019-05-06T10:15:42.833Z,54.00
2019-05-06T10:18:13.166Z,51.79
2019-05-06T10:20:46.247Z,53.58
2019-05-06T10:23:15.065Z,51.76
2019-05-06T10:25:44.183Z,51.08
2019-05-06T10:28:33.782Z,51.93
2019-05-06T10:31:05.301Z,58.60
2019-05-06T10:33:36.313Z,61.74
2019-05-06T10:36:04.672Z,61.90
2019-05-06T10:38:59.623Z,63.26
2019-05-06T10:41:35.859Z,62.02
2019-05-06T10:44:49.340Z,62.55
2019-05-06T10:47:17.364Z,62.61
2019-05-06T10:49:45.490Z,63.11
2019-05-06T10:52:18.768Z,63.14
2019-05-06T10:54:47.200Z,62.20
2019-05-06T10:57:46.780Z,61.11
2019-05-06T11:00:16.520Z,58.70
2019-05-06T11:03:22.827Z,55.37
2019-05-06T11:05:53.380Z,53.19
2019-05-06T11:08:22.152Z,52.66
2019-05-06T11:10:50.365Z,52.11
2019-05-06T11:13:18.912Z,51.28
2019-05-06T11:15:47.084Z,49.52
2019-05-06T11:18:15.699Z,49.15
2019-05-06T11:20:44.262Z,49.50
2019-05-06T11:23:14.230Z,49.38
2019-05-06T11:25:43.471Z,49.68
2019-05-06T11:28:30.081Z,48.71
2019-05-06T11:31:17.931Z,49.30
2019-05-06T11:34:02.970Z,48.40
2019-05-06T11:36:56.390Z,48.26
2019-05-06T11:39:24.604Z,48.45
2019-05-06T11:42:14.434Z,47.63
2019-05-06T11:44:23.921Z,47.72
2019-05-06T11:46:52.518Z,48.39
2019-05-06T11:49:23.050Z,47.04
2019-05-06T11:51:51.432Z,46.75
2019-05-06T11:54:21.568Z,46.92
2019-05-06T11:56:55.143Z,46.80
2019-05-06T11:59:22.586Z,47.11
2019-05-06T12:01:54.359Z,48.36
2019-05-06T12:04:23.328Z,49.03
2019-05-06T12:06:54.019Z,50.34
2019-05-06T12:09:22.401Z,54.94
2019-05-06T12:11:52.875Z,56.84
2019-05-06T12:14:22.719Z,58.11
2019-05-06T12:16:54.869Z,58.76
2019-05-06T12:19:22.534Z,59.16
2019-05-06T12:21:51.594Z,59.35
2019-05-06T12:24:19.749Z,57.47
2019-05-06T12:26:47.904Z,56.67
2019-05-06T12:29:16.174Z,57.04
2019-05-06T12:31:48.655Z,56.59
2019-05-06T12:34:17.314Z,55.47
2019-05-06T12:36:47.362Z,53.40
2019-05-06T12:39:26.884Z,52.74
2019-05-06T12:42:14.993Z,52.51
2019-05-06T12:45:03.852Z,53.83
2019-05-06T12:47:37.519Z,53.77
2019-05-06T12:50:06.310Z,53.60
2019-05-06T12:52:34.462Z,53.83
2019-05-06T12:55:17.528Z,54.06
2019-05-06T12:57:34.366Z,54.22
2019-05-06T13:00:04.576Z,55.14
2019-05-06T13:02:33.054Z,55.69
2019-05-06T13:05:03.943Z,55.86
2019-05-06T13:07:38.483Z,55.97
2019-05-06T13:10:07.109Z,55.67
2019-05-06T13:12:37.013Z,56.13
2019-05-06T13:15:08.185Z,58.11
2019-05-06T13:17:35.942Z,60.05
2019-05-06T13:20:05.397Z,61.14
2019-05-06T13:22:59.422Z,62.46
2019-05-06T13:25:27.625Z,62.69
2019-05-06T13:27:56.128Z,62.32
2019-05-06T13:30:24.539Z,62.51
2019-05-06T13:32:58.163Z,61.42
2019-05-06T13:35:27.119Z,61.10
2019-05-06T13:37:55.337Z,61.29
2019-05-06T13:40:27.171Z,60.18
2019-05-06T13:43:20.262Z,61.01
2019-05-06T13:45:52.536Z,60.22
2019-05-06T13:48:27.157Z,61.08
2019-05-06T13:51:03.224Z,60.05
2019-05-06T13:53:39.085Z,59.19
2019-05-06T13:56:04.054Z,59.27
2019-05-06T13:58:32.354Z,57.89
2019-05-06T14:01:03.265Z,57.55
2019-05-06T14:03:32.265Z,55.85
2019-05-06T14:06:03.020Z,55.09
2019-05-06T14:08:33.004Z,54.71
2019-05-06T14:11:02.927Z,53.78
2019-05-06T14:13:32.777Z,53.08
2019-05-06T14:16:03.752Z,51.71
2019-05-06T14:18:33.191Z,50.56
2019-05-06T14:21:02.948Z,49.74
2019-05-06T14:23:32.728Z,49.63
2019-05-06T14:26:25.791Z,49.79
2019-05-06T14:29:23.400Z,49.42
2019-05-06T14:31:52.608Z,50.32
2019-05-06T14:34:22.936Z,50.43
2019-05-06T14:36:53.405Z,50.28
2019-05-06T14:39:25.522Z,50.29
2019-05-06T14:41:54.993Z,50.18
2019-05-06T14:44:23.504Z,52.33
2019-05-06T14:46:58.663Z,51.97
2019-05-06T14:49:28.425Z,52.79
2019-05-06T14:51:56.587Z,53.11
2019-05-06T14:54:25.062Z,54.27
2019-05-06T14:56:57.450Z,54.65
2019-05-06T14:59:25.712Z,54.99
2019-05-06T15:01:54.124Z,55.33
2019-05-06T15:04:23.186Z,55.49
2019-05-06T15:06:52.966Z,55.25
2019-05-06T15:09:22.659Z,54.45
2019-05-06T15:11:51.022Z,54.28
2019-05-06T15:14:19.601Z,53.86
2019-05-06T15:16:47.965Z,53.31
2019-05-06T15:19:16.488Z,53.01
2019-05-06T15:21:44.924Z,51.94
2019-05-06T15:24:14.380Z,51.93
2019-05-06T15:26:43.277Z,51.72
2019-05-06T15:29:12.774Z,51.17
2019-05-06T15:32:13.063Z,50.68
2019-05-06T15:35:02.327Z,50.89
2019-05-06T15:37:42.256Z,50.46
2019-05-06T15:40:12.172Z,51.01
2019-05-06T15:42:42.505Z,50.37
2019-05-06T15:45:12.697Z,49.94
2019-05-06T15:47:42.579Z,49.12
2019-05-06T15:50:13.477Z,50.05
2019-05-06T15:52:43.457Z,49.94
2019-05-06T15:55:12.636Z,50.63
2019-05-06T15:57:43.392Z,50.86
2019-05-06T16:00:15.678Z,50.98
2019-05-06T16:02:43.873Z,51.41
2019-05-06T16:05:19.468Z,52.27
2019-05-06T16:07:43.466Z,52.10
2019-05-06T16:10:13.351Z,53.23
2019-05-06T16:12:46.037Z,53.70
2019-05-06T16:15:14.600Z,54.49
2019-05-06T16:17:44.708Z,54.62
2019-05-06T16:20:13.135Z,54.84
2019-05-06T16:22:44.547Z,55.71
2019-05-06T16:25:14.480Z,56.04
2019-05-06T16:27:44.157Z,56.37
2019-05-06T16:30:16.436Z,56.75
2019-05-06T16:32:44.614Z,56.94
2019-05-06T16:35:14.385Z,57.22
2019-05-06T16:37:42.835Z,57.67
2019-05-06T16:40:12.503Z,58.03
2019-05-06T16:42:45.452Z,57.89
2019-05-06T16:45:12.605Z,58.04
2019-05-06T16:47:44.416Z,58.16
2019-05-06T16:50:14.684Z,58.33
2019-05-06T16:52:45.582Z,58.77
2019-05-06T16:55:18.963Z,58.83
2019-05-06T16:57:54.181Z,60.49
2019-05-06T17:00:25.334Z,59.78
2019-05-06T17:03:16.212Z,59.92
2019-05-06T17:06:07.714Z,60.52
2019-05-06T17:08:36.420Z,60.12
2019-05-06T17:11:05.802Z,60.34
2019-05-06T17:13:37.574Z,60.58
2019-05-06T17:16:04.476Z,61.49
2019-05-06T17:18:33.188Z,61.58
2019-05-06T17:21:01.398Z,61.23
2019-05-06T17:23:29.526Z,60.46
2019-05-06T17:25:58.336Z,60.30
2019-05-06T17:28:52.201Z,60.43
2019-05-06T17:31:38.465Z,60.45
2019-05-06T17:34:08.187Z,60.65
2019-05-06T17:36:37.472Z,61.51
2019-05-06T17:39:08.693Z,62.19
2019-05-06T17:41:45.891Z,62.67
2019-05-06T17:44:08.780Z,64.28
2019-05-06T17:46:43.996Z,65.47
2019-05-06T17:49:16.727Z,67.17
2019-05-06T17:52:04.526Z,68.14
2019-05-06T17:54:32.703Z,68.45
2019-05-06T17:57:03.853Z,68.99
2019-05-06T17:59:33.180Z,69.15
2019-05-06T18:02:03.738Z,69.60
2019-05-06T18:04:34.397Z,70.10
2019-05-06T18:07:04.053Z,70.51
2019-05-06T18:09:33.462Z,71.33
2019-05-06T18:12:03.140Z,71.56
2019-05-06T18:14:33.137Z,72.06
2019-05-06T18:17:03.685Z,72.51
2019-05-06T18:19:33.215Z,73.08
2019-05-06T18:22:02.598Z,73.25
2019-05-06T18:24:33.037Z,73.16
2019-05-06T18:27:02.632Z,73.46
2019-05-06T18:29:33.501Z,73.62
2019-05-06T18:32:03.525Z,73.81
2019-05-06T18:34:32.578Z,75.31
2019-05-06T18:37:03.156Z,73.22
2019-05-06T18:39:33.784Z,73.75
2019-05-06T18:42:16.082Z,73.87
2019-05-06T18:44:33.320Z,74.28
2019-05-06T18:47:02.728Z,73.61
2019-05-06T18:49:33.604Z,74.21
2019-05-06T18:52:02.132Z,74.08
2019-05-06T18:54:33.149Z,74.23
2019-05-06T18:57:02.644Z,74.40
2019-05-06T18:59:32.425Z,74.07
2019-05-06T19:02:02.155Z,74.10
2019-05-06T19:04:41.762Z,74.17
2019-05-06T19:07:14.482Z,73.95
2019-05-06T19:10:00.271Z,74.08
2019-05-06T19:12:34.381Z,74.22
2019-05-06T19:14:58.952Z,74.34
2019-05-06T19:17:27.459Z,75.14
2019-05-06T19:19:55.710Z,75.18
2019-05-06T19:22:23.947Z,74.59
2019-05-06T19:24:52.873Z,75.13
2019-05-06T19:27:24.699Z,74.95
2019-05-06T19:29:54.342Z,75.13
2019-05-06T19:32:22.606Z,75.17
2019-05-06T19:34:53.001Z,75.45
2019-05-06T19:37:23.082Z,75.22
2019-05-06T19:39:52.480Z,75.53
2019-05-06T19:42:22.379Z,75.79
2019-05-06T19:44:52.796Z,75.50
2019-05-06T19:47:21.124Z,75.66
2019-05-06T19:49:49.295Z,75.64
2019-05-06T19:52:17.878Z,76.04
2019-05-06T19:54:46.280Z,76.24
2019-05-06T19:57:15.954Z,76.24
2019-05-06T19:59:44.316Z,76.11
2019-05-06T20:02:13.086Z,75.89
2019-05-06T20:04:44.389Z,75.74
2019-05-06T20:07:38.384Z,76.78
2019-05-06T20:10:23.799Z,76.67
2019-05-06T20:13:01.968Z,76.30
2019-05-06T20:15:38.629Z,76.51
2019-05-06T20:18:07.840Z,76.64
2019-05-06T20:20:36.356Z,76.06
2019-05-06T20:23:05.095Z,76.37
2019-05-06T20:25:36.959Z,76.32
2019-05-06T20:28:05.169Z,76.37
2019-05-06T20:30:33.429Z,76.62
2019-05-06T20:33:01.556Z,76.89
2019-05-06T20:35:32.191Z,76.80
2019-05-06T20:38:02.602Z,77.14
2019-05-06T20:40:32.655Z,77.12
2019-05-06T20:43:14.024Z,76.92
2019-05-06T20:45:35.137Z,77.21
2019-05-06T20:48:03.227Z,76.64
2019-05-06T20:50:32.240Z,76.88
2019-05-06T20:53:00.960Z,77.01
2019-05-06T20:55:32.636Z,76.74
2019-05-06T20:57:59.943Z,76.78
2019-05-06T21:00:28.058Z,77.26
2019-05-06T21:02:56.316Z,77.87
2019-05-06T21:05:26.239Z,77.92
2019-05-06T21:07:54.647Z,78.02
2019-05-06T21:10:23.204Z,77.82
2019-05-06T21:12:53.229Z,77.79
2019-05-06T21:15:22.932Z,77.68
2019-05-06T21:17:51.353Z,78.00
2019-05-06T21:20:20.014Z,78.14
2019-05-06T21:22:49.125Z,78.35
2019-05-06T21:25:17.892Z,78.33
2019-05-06T21:27:46.036Z,77.99
2019-05-06T21:30:14.649Z,77.60
2019-05-06T21:32:42.854Z,77.60
2019-05-06T21:35:12.709Z,78.06
2019-05-06T21:37:43.898Z,77.70
2019-05-06T21:40:13.465Z,77.60
2019-05-06T21:42:43.115Z,77.79
2019-05-06T21:45:14.988Z,77.83
2019-05-06T21:47:46.284Z,77.86
2019-05-06T21:50:13.205Z,77.62
2019-05-06T21:52:43.055Z,77.62
2019-05-06T21:55:13.195Z,77.86
2019-05-06T21:57:42.496Z,78.54
2019-05-06T22:00:16.398Z,78.38
2019-05-06T22:02:43.241Z,78.10
2019-05-06T22:05:13.329Z,78.29
2019-05-06T22:07:43.432Z,78.57
2019-05-06T22:10:12.170Z,78.82
2019-05-06T22:12:43.201Z,78.98
2019-05-06T22:15:12.677Z,79.10
2019-05-06T22:17:42.935Z,79.06
2019-05-06T22:20:11.448Z,79.15
2019-05-06T22:22:42.399Z,79.44
2019-05-06T22:25:12.495Z,79.46
2019-05-06T22:27:44.246Z,79.21
2019-05-06T22:30:12.024Z,79.05
2019-05-06T22:32:46.441Z,78.91
2019-05-06T22:35:16.189Z,78.64
2019-05-06T22:37:45.214Z,78.97
2019-05-06T22:40:13.697Z,78.99
2019-05-06T22:42:43.092Z,79.11
2019-05-06T22:45:12.925Z,78.81
2019-05-06T22:47:42.152Z,78.52
2019-05-06T22:50:13.110Z,79.44
2019-05-06T22:52:42.071Z,79.33
2019-05-06T22:55:12.994Z,79.08
2019-05-06T22:57:42.269Z,79.04
2019-05-06T23:00:22.376Z,79.08
2019-05-06T23:02:55.761Z,78.82
2019-05-06T23:05:23.997Z,78.59
2019-05-06T23:07:53.218Z,78.44
2019-05-06T23:10:24.567Z,78.18
2019-05-06T23:12:52.369Z,78.34
2019-05-06T23:15:20.736Z,78.19
2019-05-06T23:17:48.911Z,78.39
2019-05-06T23:20:17.041Z,78.17
2019-05-06T23:22:45.933Z,78.23
2019-05-06T23:25:14.240Z,78.26
2019-05-06T23:27:44.220Z,78.17
2019-05-06T23:30:13.196Z,77.46
2019-05-06T23:32:42.378Z,77.94
2019-05-06T23:35:12.814Z,78.03
2019-05-06T23:38:36.282Z,78.13
2019-05-06T23:41:59.314Z,78.17
2019-05-06T23:45:22.863Z,78.37
2019-05-06T23:48:46.523Z,78.70
2019-05-06T23:52:09.457Z,78.62
2019-05-06T23:55:32.712Z,78.61
2019-05-06T23:57:59.901Z,78.54
